Time;durP1;ratioP1;P1;durP2;ratioP2;P2;SDS_P1;SDS_P2;PMS_P1;PMS_P2;Temp;Humidity;BMP_temperature;BMP_pressure;BME280_temperature;BME280_humidity;BME280_pressure;Samples;Min_cycle;Max_cycle;Signal;HPM_P1;HPM_P2
2022/10/24 00:02:15;;;;;;;0.03;0.03;;;;;;;;;;4989454;28;20228;-74
2022/10/24 00:04:41;;;;;;;0.03;0.03;;;;;;;;;;5004847;28;20252;-74
2022/10/24 00:07:11;;;;;;;0.03;0.03;;;;;;;;;;4964360;28;20224;-74
2022/10/24 00:09:37;;;;;;;0.37;0.33;;;;;;;;;;5003853;28;20228;-75
2022/10/24 00:12:06;;;;;;;0.20;0.20;;;;;;;;;;4995273;28;20217;-75
2022/10/24 00:14:35;;;;;;;0.00;0.00;;;;;;;;;;4985128;28;20228;-74
2022/10/24 00:17:01;;;;;;;0.10;0.10;;;;;;;;;;4979078;28;20220;-74
2022/10/24 00:19:30;;;;;;;0.10;0.10;;;;;;;;;;5010147;28;20255;-74
2022/10/24 00:21:56;;;;;;;0.60;0.30;;;;;;;;;;5011047;28;20217;-74
2022/10/24 00:24:24;;;;;;;0.20;0.20;;;;;;;;;;5008216;28;20686;-74
2022/10/24 00:26:54;;;;;;;0.10;0.10;;;;;;;;;;4991799;28;20221;-74
2022/10/24 00:29:22;;;;;;;0.10;0.10;;;;;;;;;;5008196;28;20212;-74
2022/10/24 00:31:52;;;;;;;0.17;0.17;;;;;;;;;;5000077;28;20223;-74
2022/10/24 00:34:17;;;;;;;0.20;0.20;;;;;;;;;;4987078;28;20221;-74
2022/10/24 00:36:48;;;;;;;0.20;0.20;;;;;;;;;;4985760;28;20274;-75
2022/10/24 00:39:15;;;;;;;0.10;0.10;;;;;;;;;;4999515;28;20221;-74
2022/10/24 00:41:41;;;;;;;0.43;0.43;;;;;;;;;;5007756;28;20227;-74
2022/10/24 00:44:18;;;;;;;0.20;0.20;;;;;;;;;;4973395;28;20277;-74
2022/10/24 00:47:04;;;;;;;0.10;0.10;;;;;;;;;;4986109;28;20675;-75
2022/10/24 00:50:02;;;;;;;0.00;0.00;;;;;;;;;;5038460;28;20782;-74
2022/10/24 00:52:35;;;;;;;0.27;0.27;;;;;;;;;;4987970;28;20638;-74
2022/10/24 00:55:05;;;;;;;0.17;0.17;;;;;;;;;;4994217;28;20694;-73
2022/10/24 00:57:41;;;;;;;0.40;0.40;;;;;;;;;;5007870;28;20299;-75
2022/10/24 01:00:12;;;;;;;1.13;0.90;;;;;;;;;;4987146;28;20289;-75
2022/10/24 01:02:40;;;;;;;0.10;0.10;;;;;;;;;;4995555;28;20278;-75
2022/10/24 01:05:06;;;;;;;0.20;0.20;;;;;;;;;;4982573;28;20336;-75
2022/10/24 01:07:49;;;;;;;0.07;0.07;;;;;;;;;;4988000;28;20299;-75
2022/10/24 01:10:19;;;;;;;0.60;0.50;;;;;;;;;;4995281;28;20310;-74
2022/10/24 01:13:36;;;;;;;0.20;0.20;;;;;;;;;;5021501;28;20621;-74
2022/10/24 01:16:26;;;;;;;0.10;0.10;;;;;;;;;;4994079;28;20228;-74
2022/10/24 01:18:55;;;;;;;0.10;0.10;;;;;;;;;;5023710;28;20224;-74
2022/10/24 01:21:24;;;;;;;0.10;0.10;;;;;;;;;;5010232;28;20289;-74
2022/10/24 01:24:15;;;;;;;4.83;0.73;;;;;;;;;;5037178;28;20315;-74
2022/10/24 01:27:28;;;;;;;0.00;0.00;;;;;;;;;;5004781;28;20302;-74
2022/10/24 01:30:05;;;;;;;0.10;0.10;;;;;;;;;;5013404;28;20217;-74
2022/10/24 01:32:35;;;;;;;0.30;0.30;;;;;;;;;;5037182;28;20219;-74
2022/10/24 01:35:10;;;;;;;0.10;0.10;;;;;;;;;;5025253;28;20550;-75
2022/10/24 01:37:43;;;;;;;0.87;0.40;;;;;;;;;;5005734;28;20242;-75
2022/10/24 01:40:15;;;;;;;0.00;0.00;;;;;;;;;;4999687;28;20242;-74
2022/10/24 01:42:43;;;;;;;0.07;0.07;;;;;;;;;;4991526;28;20250;-75
2022/10/24 01:45:12;;;;;;;0.10;0.10;;;;;;;;;;4990501;28;20218;-75
2022/10/24 01:47:42;;;;;;;0.10;0.10;;;;;;;;;;4988659;28;20229;-74
2022/10/24 01:50:13;;;;;;;0.10;0.10;;;;;;;;;;4965083;28;20259;-74
2022/10/24 01:52:44;;;;;;;0.10;0.10;;;;;;;;;;4985606;28;20220;-75
2022/10/24 01:55:10;;;;;;;1.43;1.33;;;;;;;;;;5001047;28;20217;-74
2022/10/24 01:57:35;;;;;;;0.20;0.20;;;;;;;;;;5005807;28;20618;-75
2022/10/24 02:00:01;;;;;;;0.10;0.10;;;;;;;;;;4988653;28;20251;-75
2022/10/24 02:02:32;;;;;;;0.10;0.10;;;;;;;;;;4985711;28;20212;-74
2022/10/24 02:05:02;;;;;;;0.10;0.10;;;;;;;;;;4960513;28;20231;-74
2022/10/24 02:07:27;;;;;;;0.10;0.10;;;;;;;;;;5012484;28;20306;-75
2022/10/24 02:10:05;;;;;;;0.10;0.10;;;;;;;;;;4971679;28;20236;-73
2022/10/24 02:12:33;;;;;;;0.10;0.10;;;;;;;;;;4972592;28;20227;-75
2022/10/24 02:15:02;;;;;;;0.00;0.00;;;;;;;;;;4985695;28;20690;-74
2022/10/24 02:17:30;;;;;;;0.73;0.67;;;;;;;;;;5019700;28;20220;-74
2022/10/24 02:19:58;;;;;;;0.30;0.30;;;;;;;;;;5001360;28;20227;-75
2022/10/24 02:22:37;;;;;;;3.20;0.67;;;;;;;;;;5011179;28;20227;-74
2022/10/24 02:25:05;;;;;;;0.10;0.10;;;;;;;;;;5034953;28;20634;-75
2022/10/24 02:27:46;;;;;;;0.30;0.30;;;;;;;;;;5002973;28;20257;-74
2022/10/24 02:30:15;;;;;;;0.10;0.10;;;;;;;;;;5010047;28;20232;-74
2022/10/24 02:32:42;;;;;;;0.30;0.30;;;;;;;;;;5009673;28;20251;-75
2022/10/24 02:35:09;;;;;;;0.00;0.00;;;;;;;;;;5010680;28;20246;-75
2022/10/24 02:37:38;;;;;;;0.10;0.10;;;;;;;;;;5022848;28;20224;-74
2022/10/24 02:40:05;;;;;;;0.10;0.10;;;;;;;;;;5020760;28;20224;-74
2022/10/24 02:42:33;;;;;;;0.13;0.13;;;;;;;;;;4980278;28;20599;-75
2022/10/24 02:44:58;;;;;;;0.00;0.00;;;;;;;;;;5000549;28;20223;-75
2022/10/24 02:47:28;;;;;;;0.03;0.03;;;;;;;;;;4988958;28;20219;-75
2022/10/24 02:49:54;;;;;;;0.10;0.10;;;;;;;;;;4998826;28;20220;-74
2022/10/24 02:52:24;;;;;;;0.00;0.00;;;;;;;;;;4989998;28;20251;-74
2022/10/24 02:54:50;;;;;;;0.17;0.17;;;;;;;;;;4992742;28;20212;-74
2022/10/24 02:57:16;;;;;;;0.10;0.10;;;;;;;;;;5023643;28;20249;-75
2022/10/24 02:59:43;;;;;;;0.00;0.00;;;;;;;;;;5006679;28;20262;-74
2022/10/24 03:02:09;;;;;;;0.10;0.10;;;;;;;;;;5008158;28;20228;-75
2022/10/24 03:04:35;;;;;;;0.10;0.10;;;;;;;;;;5043398;28;20855;-75
2022/10/24 03:07:00;;;;;;;0.00;0.00;;;;;;;;;;4999979;28;20301;-76
2022/10/24 03:09:33;;;;;;;0.03;0.03;;;;;;;;;;5023944;28;20240;-75
2022/10/24 03:12:01;;;;;;;0.33;0.17;;;;;;;;;;5020194;28;20215;-75
2022/10/24 03:14:26;;;;;;;0.20;0.20;;;;;;;;;;4994998;28;20624;-75
2022/10/24 03:16:54;;;;;;;0.10;0.10;;;;;;;;;;5006404;28;20749;-76
2022/10/24 03:19:22;;;;;;;0.50;0.50;;;;;;;;;;5006833;28;20226;-73
2022/10/24 03:21:52;;;;;;;0.00;0.00;;;;;;;;;;5022375;28;20231;-75
2022/10/24 03:24:18;;;;;;;0.20;0.20;;;;;;;;;;5009147;28;20583;-76
2022/10/24 03:26:43;;;;;;;0.10;0.10;;;;;;;;;;5010348;28;20229;-76
2022/10/24 03:29:12;;;;;;;0.10;0.10;;;;;;;;;;5011174;28;20218;-75
2022/10/24 03:31:43;;;;;;;0.10;0.10;;;;;;;;;;5015373;28;20231;-75
2022/10/24 03:34:09;;;;;;;0.27;0.27;;;;;;;;;;5007155;28;20223;-75
2022/10/24 03:36:34;;;;;;;0.33;0.33;;;;;;;;;;4995185;28;20226;-76
2022/10/24 03:38:59;;;;;;;0.10;0.10;;;;;;;;;;4999286;28;20223;-76
2022/10/24 03:41:29;;;;;;;0.13;0.13;;;;;;;;;;5023910;28;20227;-75
2022/10/24 03:43:55;;;;;;;1.10;0.87;;;;;;;;;;5023400;28;20227;-76
2022/10/24 03:46:21;;;;;;;0.10;0.10;;;;;;;;;;5006072;28;20314;-76
2022/10/24 03:48:46;;;;;;;7.70;0.73;;;;;;;;;;5022607;28;20333;-76
2022/10/24 03:51:18;;;;;;;0.10;0.10;;;;;;;;;;5011926;28;20215;-75
2022/10/24 03:53:48;;;;;;;0.00;0.00;;;;;;;;;;5002841;28;20650;-76
2022/10/24 03:56:17;;;;;;;0.10;0.10;;;;;;;;;;5020818;28;20215;-75
2022/10/24 03:58:47;;;;;;;0.17;0.17;;;;;;;;;;5008066;28;20211;-76
2022/10/24 04:01:17;;;;;;;0.17;0.17;;;;;;;;;;4986152;28;20224;-76
2022/10/24 04:03:48;;;;;;;0.87;0.53;;;;;;;;;;5021183;28;20277;-76
2022/10/24 04:06:13;;;;;;;0.60;0.30;;;;;;;;;;4990902;28;20223;-76
2022/10/24 04:08:41;;;;;;;0.87;0.70;;;;;;;;;;5015652;28;20748;-75
2022/10/24 04:11:07;;;;;;;0.10;0.10;;;;;;;;;;5008820;28;20717;-75
2022/10/24 04:13:34;;;;;;;0.80;0.80;;;;;;;;;;5005987;28;20254;-75
2022/10/24 04:16:02;;;;;;;0.10;0.10;;;;;;;;;;5023990;28;20306;-76
2022/10/24 04:18:28;;;;;;;0.10;0.10;;;;;;;;;;5035864;28;20243;-75
2022/10/24 04:20:53;;;;;;;0.10;0.10;;;;;;;;;;5027503;28;20288;-76
2022/10/24 04:23:19;;;;;;;6.50;0.97;;;;;;;;;;5026860;28;20692;-76
2022/10/24 04:25:47;;;;;;;0.10;0.10;;;;;;;;;;5007328;28;20306;-75
2022/10/24 04:28:14;;;;;;;0.10;0.10;;;;;;;;;;5022750;28;20216;-75
2022/10/24 04:30:44;;;;;;;0.27;0.27;;;;;;;;;;5024565;28;20220;-75
2022/10/24 04:33:12;;;;;;;1.53;0.47;;;;;;;;;;5019837;28;20645;-75
2022/10/24 04:35:37;;;;;;;0.77;0.67;;;;;;;;;;5022100;28;20334;-75
2022/10/24 04:38:03;;;;;;;1.50;1.40;;;;;;;;;;5013808;28;20691;-75
2022/10/24 04:40:28;;;;;;;0.10;0.10;;;;;;;;;;4993092;28;20743;-75
2022/10/24 04:42:59;;;;;;;0.10;0.10;;;;;;;;;;5008501;28;20226;-75
2022/10/24 04:45:26;;;;;;;0.10;0.10;;;;;;;;;;5025960;28;20298;-75
2022/10/24 04:47:52;;;;;;;0.37;0.30;;;;;;;;;;4997701;28;20224;-75
2022/10/24 04:50:19;;;;;;;0.33;0.33;;;;;;;;;;5009586;28;20207;-76
2022/10/24 04:52:47;;;;;;;0.10;0.10;;;;;;;;;;4993859;28;20290;-75
2022/10/24 04:55:15;;;;;;;0.53;0.53;;;;;;;;;;5012206;28;20249;-75
2022/10/24 04:57:45;;;;;;;0.10;0.10;;;;;;;;;;5029549;28;20765;-75
2022/10/24 05:00:13;;;;;;;0.20;0.20;;;;;;;;;;5023948;28;20646;-76
2022/10/24 05:02:39;;;;;;;0.30;0.30;;;;;;;;;;5024380;28;20261;-75
2022/10/24 05:05:05;;;;;;;0.00;0.00;;;;;;;;;;5008933;28;20238;-75
2022/10/24 05:07:30;;;;;;;0.30;0.30;;;;;;;;;;5006457;28;20215;-75
2022/10/24 05:09:56;;;;;;;0.20;0.20;;;;;;;;;;4991505;28;20230;-75
2022/10/24 05:12:21;;;;;;;0.37;0.37;;;;;;;;;;5020033;28;20227;-75
2022/10/24 05:14:47;;;;;;;0.20;0.20;;;;;;;;;;5007995;28;20273;-75
2022/10/24 05:17:14;;;;;;;0.10;0.10;;;;;;;;;;5007710;28;20212;-75
2022/10/24 05:19:47;;;;;;;0.77;0.77;;;;;;;;;;5005536;28;20228;-75
2022/10/24 05:22:15;;;;;;;0.10;0.10;;;;;;;;;;5006084;28;20239;-74
2022/10/24 05:24:40;;;;;;;1.27;1.17;;;;;;;;;;4997519;28;20215;-74
2022/10/24 05:27:08;;;;;;;0.07;0.07;;;;;;;;;;4994920;28;20595;-74
2022/10/24 05:29:34;;;;;;;0.20;0.20;;;;;;;;;;5003660;28;20212;-75
2022/10/24 05:31:59;;;;;;;0.20;0.20;;;;;;;;;;5021277;28;20599;-74
2022/10/24 05:34:30;;;;;;;0.90;0.30;;;;;;;;;;5004081;28;20215;-75
2022/10/24 05:36:55;;;;;;;0.07;0.07;;;;;;;;;;5002777;28;20733;-75
2022/10/24 05:39:23;;;;;;;0.00;0.00;;;;;;;;;;5021035;28;20234;-76
2022/10/24 05:41:48;;;;;;;0.40;0.40;;;;;;;;;;5019302;28;20340;-75
2022/10/24 05:44:14;;;;;;;0.73;0.73;;;;;;;;;;5006340;28;20336;-76
2022/10/24 05:46:42;;;;;;;0.37;0.37;;;;;;;;;;5023593;28;20231;-76
2022/10/24 05:49:07;;;;;;;0.10;0.10;;;;;;;;;;5018748;28;20834;-74
2022/10/24 05:51:33;;;;;;;0.10;0.10;;;;;;;;;;4992336;28;20238;-75
2022/10/24 05:53:58;;;;;;;0.20;0.20;;;;;;;;;;5021611;28;20274;-76
2022/10/24 05:56:26;;;;;;;0.67;0.47;;;;;;;;;;4990849;28;20211;-76
2022/10/24 05:58:51;;;;;;;0.37;0.37;;;;;;;;;;5032596;28;20615;-75
2022/10/24 06:01:19;;;;;;;0.30;0.30;;;;;;;;;;5019416;28;20274;-76
2022/10/24 06:03:49;;;;;;;0.20;0.20;;;;;;;;;;4998122;28;20219;-75
2022/10/24 06:06:18;;;;;;;0.50;0.50;;;;;;;;;;5008919;28;20233;-75
2022/10/24 06:08:46;;;;;;;0.10;0.10;;;;;;;;;;5012418;28;20641;-76
2022/10/24 06:11:11;;;;;;;0.03;0.03;;;;;;;;;;5024467;28;20227;-76
2022/10/24 06:13:39;;;;;;;0.13;0.13;;;;;;;;;;5028736;28;20226;-75
2022/10/24 06:16:10;;;;;;;0.63;0.63;;;;;;;;;;5004136;28;20231;-75
2022/10/24 06:18:38;;;;;;;0.20;0.20;;;;;;;;;;5019230;28;20302;-75
2022/10/24 06:21:04;;;;;;;1.07;0.83;;;;;;;;;;5012152;28;20797;-74
2022/10/24 06:23:32;;;;;;;0.20;0.20;;;;;;;;;;5024149;28;20230;-75
2022/10/24 06:26:00;;;;;;;0.10;0.10;;;;;;;;;;5021536;28;20227;-75
2022/10/24 06:28:28;;;;;;;0.00;0.00;;;;;;;;;;5008307;28;20226;-75
2022/10/24 06:30:54;;;;;;;0.20;0.20;;;;;;;;;;5015625;28;20865;-75
2022/10/24 06:33:20;;;;;;;0.10;0.10;;;;;;;;;;5022759;28;20291;-76
2022/10/24 06:35:48;;;;;;;0.40;0.40;;;;;;;;;;5045497;28;20223;-78
2022/10/24 06:38:13;;;;;;;0.30;0.30;;;;;;;;;;5012903;28;20266;-75
2022/10/24 06:40:41;;;;;;;0.50;0.40;;;;;;;;;;4996497;28;20227;-77
2022/10/24 06:43:07;;;;;;;3.37;2.03;;;;;;;;;;5015778;28;20227;-76
2022/10/24 06:45:35;;;;;;;0.10;0.10;;;;;;;;;;5028833;28;20866;-75
2022/10/24 06:48:03;;;;;;;0.10;0.10;;;;;;;;;;5012456;28;20346;-74
2022/10/24 06:50:29;;;;;;;0.10;0.10;;;;;;;;;;4990777;28;20647;-75
2022/10/24 06:52:54;;;;;;;1.80;0.43;;;;;;;;;;5024372;28;20215;-75
2022/10/24 06:55:20;;;;;;;0.73;0.73;;;;;;;;;;5038333;28;20216;-75
2022/10/24 06:57:47;;;;;;;0.20;0.20;;;;;;;;;;5044082;28;20635;-75
2022/10/24 07:00:13;;;;;;;0.50;0.50;;;;;;;;;;5025968;28;20207;-74
2022/10/24 07:02:41;;;;;;;0.10;0.10;;;;;;;;;;4992491;28;20220;-74
2022/10/24 07:05:13;;;;;;;0.00;0.00;;;;;;;;;;5014001;28;20220;-75
2022/10/24 07:07:39;;;;;;;0.33;0.33;;;;;;;;;;5046441;28;20222;-75
2022/10/24 07:10:05;;;;;;;0.10;0.10;;;;;;;;;;4994226;28;20246;-73
2022/10/24 07:12:33;;;;;;;0.30;0.30;;;;;;;;;;5010232;28;20223;-74
2022/10/24 07:14:59;;;;;;;0.10;0.10;;;;;;;;;;5007957;28;20235;-74
2022/10/24 07:17:24;;;;;;;0.10;0.10;;;;;;;;;;5020190;28;20220;-74
2022/10/24 07:19:53;;;;;;;0.13;0.13;;;;;;;;;;5031079;28;20697;-74
2022/10/24 07:22:18;;;;;;;0.10;0.10;;;;;;;;;;5008763;28;20226;-75
2022/10/24 07:24:51;;;;;;;2.93;1.30;;;;;;;;;;5023075;28;20626;-74
2022/10/24 07:27:19;;;;;;;0.30;0.30;;;;;;;;;;5019535;28;20258;-74
2022/10/24 07:29:45;;;;;;;0.10;0.10;;;;;;;;;;5016748;28;20219;-73
2022/10/24 07:32:10;;;;;;;0.83;0.83;;;;;;;;;;4994868;28;20218;-75
2022/10/24 07:34:38;;;;;;;0.20;0.20;;;;;;;;;;4998831;28;20212;-74
2022/10/24 07:37:03;;;;;;;0.57;0.57;;;;;;;;;;5005379;28;20239;-74
2022/10/24 07:39:29;;;;;;;0.20;0.20;;;;;;;;;;5020175;28;20227;-74
2022/10/24 07:41:57;;;;;;;0.20;0.20;;;;;;;;;;5013622;28;20224;-75
2022/10/24 07:44:22;;;;;;;0.73;0.73;;;;;;;;;;5009851;28;20266;-74
2022/10/24 07:46:50;;;;;;;0.50;0.50;;;;;;;;;;5007529;28;20809;-77
2022/10/24 07:49:20;;;;;;;0.10;0.10;;;;;;;;;;5024936;28;20223;-75
2022/10/24 07:51:48;;;;;;;0.32;0.32;;;;;;;;;;5020334;28;20239;-74
2022/10/24 07:54:14;;;;;;;0.30;0.30;;;;;;;;;;5026214;28;20211;-73
2022/10/24 07:56:39;;;;;;;0.10;0.10;;;;;;;;;;5027434;28;20921;-74
2022/10/24 07:59:07;;;;;;;2.57;1.07;;;;;;;;;;5007318;28;20773;-73
2022/10/24 08:01:35;;;;;;;4.60;2.57;;;;;;;;;;5012704;28;20246;-74
2022/10/24 08:04:02;;;;;;;4.47;3.40;;;;;;;;;;5008112;28;20303;-74
2022/10/24 08:06:28;;;;;;;4.63;2.97;;;;;;;;;;5019820;28;20229;-74
2022/10/24 08:08:56;;;;;;;7.40;3.92;;;;;;;;;;5008961;28;20216;-74
2022/10/24 08:11:24;;;;;;;3.97;3.03;;;;;;;;;;5023852;28;20242;-73
2022/10/24 08:13:50;;;;;;;7.07;3.97;;;;;;;;;;5010565;28;20240;-74
2022/10/24 08:16:19;;;;;;;6.73;3.37;;;;;;;;;;5006341;28;20215;-74
2022/10/24 08:18:45;;;;;;;6.07;3.10;;;;;;;;;;5013980;28;20215;-74
2022/10/24 08:21:14;;;;;;;7.35;3.20;;;;;;;;;;4997481;28;20234;-73
2022/10/24 08:23:43;;;;;;;8.10;3.10;;;;;;;;;;5025892;28;20223;-74
2022/10/24 08:26:11;;;;;;;7.35;3.42;;;;;;;;;;4996215;28;20223;-74
2022/10/24 08:28:40;;;;;;;5.47;3.05;;;;;;;;;;5006605;28;20219;-74
2022/10/24 08:31:07;;;;;;;7.57;2.85;;;;;;;;;;4994828;28;20234;-74
2022/10/24 08:33:33;;;;;;;6.65;3.13;;;;;;;;;;4997978;28;20223;-74
2022/10/24 08:36:03;;;;;;;4.72;2.75;;;;;;;;;;4991194;28;20223;-74
2022/10/24 08:38:30;;;;;;;4.80;2.63;;;;;;;;;;5021690;28;20224;-73
2022/10/24 08:40:56;;;;;;;6.18;2.58;;;;;;;;;;4993657;28;20226;-73
2022/10/24 08:43:22;;;;;;;5.13;2.70;;;;;;;;;;4999231;28;20303;-74
2022/10/24 08:46:12;;;;;;;3.70;2.35;;;;;;;;;;5012666;28;20219;-74
2022/10/24 08:48:42;;;;;;;4.03;2.60;;;;;;;;;;5003069;28;20661;-73
2022/10/24 08:51:29;;;;;;;3.95;2.20;;;;;;;;;;5006537;28;20232;-74
2022/10/24 08:53:55;;;;;;;7.18;2.63;;;;;;;;;;5036313;28;20242;-74
2022/10/24 08:56:25;;;;;;;6.45;2.58;;;;;;;;;;5016230;28;20232;-74
2022/10/24 08:58:53;;;;;;;3.10;2.40;;;;;;;;;;5005690;28;20216;-74
2022/10/24 09:01:42;;;;;;;3.67;2.60;;;;;;;;;;5025426;28;20591;-73
2022/10/24 09:04:11;;;;;;;3.25;2.30;;;;;;;;;;5024822;28;20216;-74
2022/10/24 09:06:39;;;;;;;5.40;2.67;;;;;;;;;;5020686;28;20227;-73
2022/10/24 09:09:22;;;;;;;6.18;2.28;;;;;;;;;;5008930;28;20981;-74
2022/10/24 09:12:12;;;;;;;3.63;2.60;;;;;;;;;;5019145;28;20223;-76
2022/10/24 09:14:39;;;;;;;4.30;2.30;;;;;;;;;;5019537;28;20219;-76
2022/10/24 09:17:27;;;;;;;4.25;2.17;;;;;;;;;;5010458;28;20243;-76
2022/10/24 09:19:57;;;;;;;3.85;2.17;;;;;;;;;;4969248;28;20271;-74
2022/10/24 09:22:23;;;;;;;3.20;2.10;;;;;;;;;;5003532;28;20225;-75
2022/10/24 09:24:54;;;;;;;3.65;2.15;;;;;;;;;;4984817;28;20734;-73
2022/10/24 09:27:25;;;;;;;4.43;2.42;;;;;;;;;;4983715;28;20228;-72
2022/10/24 09:29:51;;;;;;;3.88;2.28;;;;;;;;;;4986371;28;20213;-75
2022/10/24 09:32:21;;;;;;;2.80;2.17;;;;;;;;;;5003754;28;20220;-74
2022/10/24 09:34:47;;;;;;;3.08;2.25;;;;;;;;;;4976568;28;20220;-71
2022/10/24 09:37:31;;;;;;;5.53;2.50;;;;;;;;;;5010664;28;20220;-73
2022/10/24 09:40:27;;;;;;;4.13;2.67;;;;;;;;;;4995739;28;20235;-72
2022/10/24 09:42:54;;;;;;;4.15;2.00;;;;;;;;;;4981444;28;20227;-73
2022/10/24 09:45:41;;;;;;;5.03;2.28;;;;;;;;;;4998877;28;20216;-72
2022/10/24 09:48:36;;;;;;;3.08;1.95;;;;;;;;;;4980996;28;20215;-73
2022/10/24 09:51:02;;;;;;;4.15;1.90;;;;;;;;;;5007813;28;20217;-73
2022/10/24 09:53:33;;;;;;;4.70;1.65;;;;;;;;;;4979740;28;20228;-74
2022/10/24 09:56:07;;;;;;;5.57;1.70;;;;;;;;;;5014997;28;20726;-72
2022/10/24 09:58:32;;;;;;;3.45;1.75;;;;;;;;;;4982927;28;20220;-74
2022/10/24 10:01:13;;;;;;;4.97;1.85;;;;;;;;;;5016443;28;20220;-73
2022/10/24 10:03:39;;;;;;;5.05;1.92;;;;;;;;;;5014576;28;20637;-73
2022/10/24 10:06:19;;;;;;;3.42;2.03;;;;;;;;;;5003139;28;20808;-73
2022/10/24 10:08:52;;;;;;;2.10;1.58;;;;;;;;;;4999064;28;20231;-74
2022/10/24 10:11:25;;;;;;;4.63;1.75;;;;;;;;;;4984103;28;20228;-74
2022/10/24 10:14:00;;;;;;;2.53;1.40;;;;;;;;;;5015436;28;20228;-73
2022/10/24 10:16:37;;;;;;;4.88;1.83;;;;;;;;;;4997838;28;20224;-74
2022/10/24 10:19:13;;;;;;;2.38;1.60;;;;;;;;;;5020139;28;20287;-77
2022/10/24 10:22:04;;;;;;;5.60;1.33;;;;;;;;;;5008134;28;20240;-76
2022/10/24 10:24:38;;;;;;;3.58;1.52;;;;;;;;;;5015120;28;20256;-74
2022/10/24 10:27:35;;;;;;;3.58;1.23;;;;;;;;;;4970584;28;20269;-75
2022/10/24 10:30:30;;;;;;;4.15;1.52;;;;;;;;;;4999629;28;20271;-72
2022/10/24 10:32:56;;;;;;;3.55;1.80;;;;;;;;;;5015365;28;20235;-73
2022/10/24 10:35:33;;;;;;;4.30;1.50;;;;;;;;;;5014444;28;20274;-74
2022/10/24 10:38:23;;;;;;;7.05;1.40;;;;;;;;;;5017895;28;20689;-73
2022/10/24 10:40:55;;;;;;;6.38;1.42;;;;;;;;;;4998222;28;20270;-74
2022/10/24 10:43:32;;;;;;;1.73;1.23;;;;;;;;;;4990570;28;20229;-74
2022/10/24 10:46:10;;;;;;;2.15;1.20;;;;;;;;;;4991382;28;20220;-73
2022/10/24 10:48:42;;;;;;;3.45;1.75;;;;;;;;;;4991143;28;20234;-73
2022/10/24 10:51:29;;;;;;;2.85;1.35;;;;;;;;;;4983668;28;20252;-74
2022/10/24 10:54:24;;;;;;;1.50;0.98;;;;;;;;;;5013887;28;20221;-74
2022/10/24 10:56:55;;;;;;;2.63;1.40;;;;;;;;;;4994694;28;20274;-73
2022/10/24 10:59:25;;;;;;;3.30;1.20;;;;;;;;;;4975527;28;20647;-73
2022/10/24 11:02:21;;;;;;;2.63;1.20;;;;;;;;;;4989493;28;20303;-74
2022/10/24 11:05:18;;;;;;;3.95;1.50;;;;;;;;;;4988966;28;20765;-74
2022/10/24 11:07:56;;;;;;;3.67;1.45;;;;;;;;;;4984937;28;20220;-74
2022/10/24 11:10:23;;;;;;;2.65;1.10;;;;;;;;;;5005227;28;20224;-74
2022/10/24 11:12:51;;;;;;;4.07;1.40;;;;;;;;;;4991850;28;20225;-74
2022/10/24 11:15:17;;;;;;;4.68;1.25;;;;;;;;;;4979231;28;20215;-73
2022/10/24 11:17:50;;;;;;;2.63;1.40;;;;;;;;;;5012063;28;20223;-74
2022/10/24 11:20:50;;;;;;;5.18;1.42;;;;;;;;;;4976473;28;20224;-73
2022/10/24 11:23:23;;;;;;;4.30;1.33;;;;;;;;;;5005039;28;20893;-73
2022/10/24 11:26:10;;;;;;;2.78;1.20;;;;;;;;;;4987866;28;20215;-74
2022/10/24 11:28:40;;;;;;;2.00;1.00;;;;;;;;;;4992602;28;20251;-74
2022/10/24 11:31:12;;;;;;;2.83;1.00;;;;;;;;;;5011111;28;20283;-73
2022/10/24 11:33:46;;;;;;;2.65;1.35;;;;;;;;;;4989168;28;20232;-73
2022/10/24 11:36:19;;;;;;;1.52;1.20;;;;;;;;;;5004194;28;20219;-73
2022/10/24 11:38:57;;;;;;;1.83;0.90;;;;;;;;;;4994987;28;20670;-73
2022/10/24 11:41:28;;;;;;;1.65;0.82;;;;;;;;;;5005500;28;20278;-73
2022/10/24 11:43:54;;;;;;;4.10;1.15;;;;;;;;;;4992947;28;20220;-74
2022/10/24 11:46:27;;;;;;;2.33;1.17;;;;;;;;;;4977254;28;20281;-73
2022/10/24 11:48:56;;;;;;;4.82;0.85;;;;;;;;;;4992634;28;20281;-73
2022/10/24 11:51:30;;;;;;;2.55;0.85;;;;;;;;;;5006854;28;20308;-75
2022/10/24 11:54:02;;;;;;;5.60;1.35;;;;;;;;;;4971771;28;20223;-73
2022/10/24 11:56:40;;;;;;;5.35;1.08;;;;;;;;;;4989036;28;20221;-72
2022/10/24 11:59:06;;;;;;;2.45;1.00;;;;;;;;;;4992620;28;20274;-73
2022/10/24 12:01:51;;;;;;;1.45;1.02;;;;;;;;;;5003684;28;20286;-73
2022/10/24 12:04:34;;;;;;;6.47;1.15;;;;;;;;;;5018363;28;20224;-73
2022/10/24 12:07:28;;;;;;;1.95;0.90;;;;;;;;;;4983833;28;20687;-74
2022/10/24 12:10:28;;;;;;;2.47;1.27;;;;;;;;;;4988759;28;20652;-73
2022/10/24 12:13:09;;;;;;;4.35;1.17;;;;;;;;;;5001764;28;20247;-73
2022/10/24 12:16:00;;;;;;;1.25;0.95;;;;;;;;;;5002267;28;20221;-74
2022/10/24 12:18:38;;;;;;;4.15;1.25;;;;;;;;;;5017241;28;20231;-73
2022/10/24 12:21:07;;;;;;;4.18;0.98;;;;;;;;;;5007740;28;20243;-72
2022/10/24 12:23:33;;;;;;;1.88;1.10;;;;;;;;;;4998489;28;20245;-73
2022/10/24 12:26:27;;;;;;;4.53;1.27;;;;;;;;;;4979158;28;20723;-73
2022/10/24 12:29:02;;;;;;;2.72;1.08;;;;;;;;;;4989950;28;20247;-74
2022/10/24 12:31:31;;;;;;;1.10;1.00;;;;;;;;;;4971739;28;20227;-72
2022/10/24 12:34:18;;;;;;;2.08;1.08;;;;;;;;;;5004890;28;20690;-74
2022/10/24 12:37:02;;;;;;;2.78;1.13;;;;;;;;;;4993523;28;20232;-73
2022/10/24 12:39:30;;;;;;;3.22;1.13;;;;;;;;;;5008920;28;20216;-72
2022/10/24 12:42:00;;;;;;;2.75;0.95;;;;;;;;;;4994168;28;20220;-73
2022/10/24 12:44:33;;;;;;;1.55;1.10;;;;;;;;;;5015390;28;20220;-72
2022/10/24 12:47:00;;;;;;;3.53;1.00;;;;;;;;;;5018362;28;20219;-74
2022/10/24 12:49:28;;;;;;;3.00;1.17;;;;;;;;;;5001164;28;20228;-73
2022/10/24 12:51:56;;;;;;;4.65;1.10;;;;;;;;;;4990824;28;20307;-73
2022/10/24 12:54:40;;;;;;;2.47;1.10;;;;;;;;;;5001527;28;20216;-73
2022/10/24 12:57:07;;;;;;;2.38;1.02;;;;;;;;;;4986512;28;20223;-74
2022/10/24 12:59:58;;;;;;;3.30;1.23;;;;;;;;;;5006895;28;20717;-73
2022/10/24 13:02:36;;;;;;;2.00;1.17;;;;;;;;;;4998990;28;20216;-73
2022/10/24 13:05:08;;;;;;;1.45;0.93;;;;;;;;;;4990632;28;20298;-74
2022/10/24 13:08:05;;;;;;;7.30;1.33;;;;;;;;;;5005015;28;20228;-73
2022/10/24 13:11:05;;;;;;;3.25;0.98;;;;;;;;;;5015860;28;20676;-74
2022/10/24 13:13:46;;;;;;;2.00;1.10;;;;;;;;;;5013367;28;20223;-74
2022/10/24 13:16:12;;;;;;;2.20;1.20;;;;;;;;;;5016536;28;20712;-73
2022/10/24 13:18:56;;;;;;;4.35;1.00;;;;;;;;;;5020983;28;20227;-73
2022/10/24 13:21:33;;;;;;;6.32;1.50;;;;;;;;;;5019086;28;20319;-72
2022/10/24 13:24:14;;;;;;;3.20;1.30;;;;;;;;;;4986527;28;20720;-74
2022/10/24 13:27:07;;;;;;;4.95;1.23;;;;;;;;;;4985509;28;20319;-72
2022/10/24 13:29:32;;;;;;;4.55;1.33;;;;;;;;;;5010265;28;20279;-74
2022/10/24 13:32:03;;;;;;;5.32;0.90;;;;;;;;;;5016557;28;20213;-73
2022/10/24 13:34:53;;;;;;;5.00;1.35;;;;;;;;;;5000175;28;20568;-73
2022/10/24 13:37:25;;;;;;;3.35;1.20;;;;;;;;;;5003283;28;20224;-74
2022/10/24 13:40:15;;;;;;;1.33;0.98;;;;;;;;;;4976105;28;20235;-72
2022/10/24 13:43:04;;;;;;;4.35;1.40;;;;;;;;;;4999557;28;20234;-72
2022/10/24 13:45:39;;;;;;;3.60;1.05;;;;;;;;;;5014044;28;20224;-75
2022/10/24 13:48:30;;;;;;;6.10;1.45;;;;;;;;;;4986897;28;20265;-74
2022/10/24 13:51:12;;;;;;;2.47;1.25;;;;;;;;;;4986913;28;20228;-73
2022/10/24 13:54:10;;;;;;;3.08;1.27;;;;;;;;;;4987797;28;20224;-74
2022/10/24 13:56:39;;;;;;;6.70;1.50;;;;;;;;;;4964562;28;20230;-73
2022/10/24 13:59:06;;;;;;;3.03;1.00;;;;;;;;;;4995036;28;20263;-73
2022/10/24 14:01:35;;;;;;;3.00;1.20;;;;;;;;;;4987501;28;20229;-73
2022/10/24 14:04:01;;;;;;;2.17;1.08;;;;;;;;;;4998986;28;20722;-74
2022/10/24 14:06:28;;;;;;;3.92;1.15;;;;;;;;;;4996498;28;20216;-74
2022/10/24 14:08:55;;;;;;;3.35;1.50;;;;;;;;;;4987052;28;20216;-73
2022/10/24 14:11:29;;;;;;;3.67;1.80;;;;;;;;;;5004618;28;20217;-73
2022/10/24 14:13:59;;;;;;;4.53;1.63;;;;;;;;;;5000434;28;20226;-75
2022/10/24 14:16:29;;;;;;;4.60;1.40;;;;;;;;;;5002145;28;20229;-74
2022/10/24 14:19:10;;;;;;;2.15;1.10;;;;;;;;;;4985045;28;20231;-74
2022/10/24 14:21:40;;;;;;;3.25;1.38;;;;;;;;;;4999586;28;20240;-73
2022/10/24 14:24:05;;;;;;;4.28;1.83;;;;;;;;;;4983039;28;20602;-74
2022/10/24 14:26:37;;;;;;;4.45;1.70;;;;;;;;;;4967340;28;20228;-73
2022/10/24 14:29:06;;;;;;;4.85;1.70;;;;;;;;;;4986380;28;20233;-72
2022/10/24 14:31:35;;;;;;;3.10;1.65;;;;;;;;;;4968544;28;20231;-74
2022/10/24 14:34:04;;;;;;;3.67;1.40;;;;;;;;;;4983483;28;20849;-73
2022/10/24 14:36:31;;;;;;;4.15;1.42;;;;;;;;;;4975300;28;20771;-73
2022/10/24 14:39:01;;;;;;;1.75;1.20;;;;;;;;;;4987071;28;20303;-72
2022/10/24 14:41:31;;;;;;;2.40;1.15;;;;;;;;;;4985985;28;20909;-73
2022/10/24 14:43:57;;;;;;;4.88;1.35;;;;;;;;;;5016340;28;20229;-72
2022/10/24 14:46:41;;;;;;;2.20;1.23;;;;;;;;;;4994091;28;20890;-73
2022/10/24 14:49:25;;;;;;;3.15;1.15;;;;;;;;;;5008068;28;20282;-74
2022/10/24 14:51:51;;;;;;;4.60;1.33;;;;;;;;;;5019235;28;20223;-75
2022/10/24 14:54:23;;;;;;;2.70;1.20;;;;;;;;;;5016266;28;20217;-73
2022/10/24 14:56:53;;;;;;;3.65;1.30;;;;;;;;;;4987728;28;20227;-73
2022/10/24 14:59:45;;;;;;;1.95;1.17;;;;;;;;;;4987875;28;20303;-73
2022/10/24 15:02:29;;;;;;;5.28;1.35;;;;;;;;;;5006042;28;20712;-73
2022/10/24 15:05:23;;;;;;;8.93;1.50;;;;;;;;;;4989408;28;20713;-72
2022/10/24 15:08:08;;;;;;;3.28;1.95;;;;;;;;;;5021818;28;20220;-73
2022/10/24 15:10:33;;;;;;;3.95;1.55;;;;;;;;;;5018990;28;20625;-74
2022/10/24 15:13:15;;;;;;;3.55;1.70;;;;;;;;;;5019200;28;20262;-72